createdAt,value
2023-02-04T00:00:15.414Z,1016.38
2023-02-04T00:01:15.454Z,1016.39
2023-02-04T00:02:15.394Z,1016.45
2023-02-04T00:03:15.381Z,1016.53
2023-02-04T00:04:15.424Z,1016.57
2023-02-04T00:05:15.369Z,1016.56
2023-02-04T00:06:15.348Z,1016.62
2023-02-04T00:07:15.348Z,1016.67
2023-02-04T00:08:15.365Z,1016.72
2023-02-04T00:09:15.353Z,1016.68
2023-02-04T00:10:15.325Z,1016.72
2023-02-04T00:11:15.292Z,1016.71
2023-02-04T00:12:15.285Z,1016.79
2023-02-04T00:13:15.289Z,1016.88
2023-02-04T00:14:15.270Z,1016.90
2023-02-04T00:15:15.244Z,1016.91
2023-02-04T00:16:15.262Z,1016.91
2023-02-04T00:17:15.238Z,1016.99
2023-02-04T00:18:15.243Z,1016.99
2023-02-04T00:19:15.205Z,1017.08
2023-02-04T00:20:15.211Z,1017.14
2023-02-04T00:21:15.227Z,1017.10
2023-02-04T00:22:15.269Z,1017.16
2023-02-04T00:23:15.209Z,1017.14
2023-02-04T00:24:15.213Z,1017.25
2023-02-04T00:25:15.150Z,1017.29
2023-02-04T00:26:15.130Z,1017.27
2023-02-04T00:27:15.120Z,1017.31
2023-02-04T00:28:15.160Z,1017.31
2023-02-04T00:29:15.286Z,1017.35
2023-02-04T00:30:15.114Z,1017.41
2023-02-04T00:31:15.223Z,1017.44
2023-02-04T00:32:15.366Z,1017.43
2023-02-04T00:33:15.087Z,1017.46
2023-02-04T00:34:15.082Z,1017.53
2023-02-04T00:35:15.090Z,1017.56
2023-02-04T00:36:15.045Z,1017.60
2023-02-04T00:37:15.013Z,1017.62
2023-02-04T00:38:14.999Z,1017.68
2023-02-04T00:39:15.065Z,1017.80
2023-02-04T00:40:14.992Z,1017.81
2023-02-04T00:41:15.046Z,1017.76
2023-02-04T00:42:14.974Z,1017.88
2023-02-04T00:43:14.959Z,1017.84
2023-02-04T00:44:14.936Z,1017.92
2023-02-04T00:45:14.987Z,1017.97
2023-02-04T00:46:14.972Z,1018.02
2023-02-04T00:47:14.916Z,1018.15
2023-02-04T00:48:14.905Z,1018.17
2023-02-04T00:49:14.894Z,1018.21
2023-02-04T00:50:14.918Z,1018.22
2023-02-04T00:51:14.893Z,1018.27
2023-02-04T00:52:14.857Z,1018.28
2023-02-04T00:53:14.852Z,1018.35
2023-02-04T00:54:14.841Z,1018.38
2023-02-04T00:55:14.822Z,1018.56
2023-02-04T00:56:14.853Z,1018.52
2023-02-04T00:57:14.796Z,1018.57
2023-02-04T00:58:14.784Z,1018.62
2023-02-04T00:59:14.799Z,1018.64
2023-02-04T01:00:14.766Z,1018.68
2023-02-04T01:01:14.765Z,1018.72
2023-02-04T01:02:15.455Z,1018.77
2023-02-04T01:03:14.839Z,1018.78
2023-02-04T01:04:14.734Z,1018.80
2023-02-04T01:05:14.736Z,1018.83
2023-02-04T01:06:14.706Z,1018.92
2023-02-04T01:07:14.790Z,1018.99
2023-02-04T01:08:14.717Z,1019.04
2023-02-04T01:09:14.664Z,1019.09
2023-02-04T01:10:14.714Z,1019.11
2023-02-04T01:11:14.686Z,1019.12
2023-02-04T01:12:14.643Z,1019.18
2023-02-04T01:13:14.670Z,1019.23
2023-02-04T01:14:14.669Z,1019.18
2023-02-04T01:15:14.618Z,1019.31
2023-02-04T01:16:14.628Z,1019.30
2023-02-04T01:17:14.625Z,1019.33
2023-02-04T01:18:14.581Z,1019.35
2023-02-04T01:19:14.577Z,1019.39
2023-02-04T01:20:14.580Z,1019.41
2023-02-04T01:21:14.563Z,1019.40
2023-02-04T01:22:14.569Z,1019.44
2023-02-04T01:23:14.532Z,1019.48
2023-02-04T01:24:14.509Z,1019.51
2023-02-04T01:25:14.514Z,1019.51
2023-02-04T01:26:14.544Z,1019.53
2023-02-04T01:27:14.480Z,1019.61
2023-02-04T01:28:14.530Z,1019.67
2023-02-04T01:29:14.474Z,1019.74
2023-02-04T01:30:14.449Z,1019.74
2023-02-04T01:31:14.524Z,1019.88
2023-02-04T01:32:14.468Z,1019.83
2023-02-04T01:33:14.414Z,1019.87
2023-02-04T01:34:14.421Z,1019.87
2023-02-04T01:35:14.421Z,1019.89
2023-02-04T01:36:14.433Z,1019.96
2023-02-04T01:37:14.387Z,1019.96
2023-02-04T01:38:14.374Z,1019.97
2023-02-04T01:39:14.362Z,1019.99
2023-02-04T01:40:14.359Z,1019.98
2023-02-04T01:41:14.329Z,1019.96
2023-02-04T01:42:14.352Z,1020.03
2023-02-04T01:43:14.314Z,1020.03
2023-02-04T01:44:14.295Z,1020.06
2023-02-04T01:45:14.297Z,1020.11
2023-02-04T01:46:14.355Z,1020.10
2023-02-04T01:47:14.276Z,1020.13
2023-02-04T01:48:14.284Z,1020.18
2023-02-04T01:49:14.238Z,1020.18
2023-02-04T01:50:14.239Z,1020.25
2023-02-04T01:51:14.232Z,1020.28
2023-02-04T01:52:14.212Z,1020.24
2023-02-04T01:53:14.213Z,1020.29
2023-02-04T01:54:14.228Z,1020.32
2023-02-04T01:55:14.179Z,1020.37
2023-02-04T01:56:14.161Z,1020.43
2023-02-04T01:57:14.142Z,1020.50
2023-02-04T01:58:14.137Z,1020.52
2023-02-04T01:59:14.156Z,1020.61
2023-02-04T02:00:14.150Z,1020.64
2023-02-04T02:01:14.150Z,1020.68
2023-02-04T02:02:14.158Z,1020.70
2023-02-04T02:03:14.124Z,1020.78
2023-02-04T02:04:14.116Z,1020.81
2023-02-04T02:05:14.063Z,1020.85
2023-02-04T02:06:14.082Z,1020.85
2023-02-04T02:07:23.761Z,1020.87
2023-02-04T02:08:14.023Z,1021.00
2023-02-04T02:09:14.041Z,1020.95
2023-02-04T02:10:14.021Z,1021.00
2023-02-04T02:11:14.028Z,1021.06
2023-02-04T02:12:13.990Z,1021.02
2023-02-04T02:13:13.983Z,1021.01
2023-02-04T02:14:13.958Z,1021.06
2023-02-04T02:15:13.957Z,1021.10
2023-02-04T02:16:13.996Z,1021.14
2023-02-04T02:17:13.960Z,1021.22
2023-02-04T02:18:13.949Z,1021.21
2023-02-04T02:19:13.953Z,1021.25
2023-02-04T02:20:13.909Z,1021.26
2023-02-04T02:21:13.889Z,1021.32
2023-02-04T02:22:13.892Z,1021.30
2023-02-04T02:23:13.869Z,1021.37
2023-02-04T02:24:13.925Z,1021.40
2023-02-04T02:25:13.873Z,1021.43
2023-02-04T02:26:13.830Z,1021.45
2023-02-04T02:27:13.817Z,1021.46
2023-02-04T02:28:13.899Z,1021.42
2023-02-04T02:29:13.847Z,1021.43
2023-02-04T02:30:13.827Z,1021.47
2023-02-04T02:31:13.872Z,1021.56
2023-02-04T02:32:13.782Z,1021.56
2023-02-04T02:33:13.759Z,1021.58
2023-02-04T02:34:13.752Z,1021.60
2023-02-04T02:35:13.767Z,1021.61
2023-02-04T02:36:13.732Z,1021.63
2023-02-04T02:37:13.719Z,1021.64
2023-02-04T02:38:13.722Z,1021.65
2023-02-04T02:39:13.702Z,1021.70
2023-02-04T02:40:13.683Z,1021.74
2023-02-04T02:41:13.692Z,1021.81
2023-02-04T02:42:13.667Z,1021.89
2023-02-04T02:43:13.687Z,1021.87
2023-02-04T02:44:13.657Z,1021.87
2023-02-04T02:45:13.625Z,1021.91
2023-02-04T02:46:13.687Z,1021.93
2023-02-04T02:47:13.648Z,1021.93
2023-02-04T02:48:13.621Z,1022.01
2023-02-04T02:49:13.593Z,1022.03
2023-02-04T02:50:13.571Z,1022.03
2023-02-04T02:51:13.594Z,1022.09
2023-02-04T02:52:13.555Z,1022.14
2023-02-04T02:53:13.600Z,1022.13
2023-02-04T02:54:13.531Z,1022.18
2023-02-04T02:55:13.537Z,1022.22
2023-02-04T02:56:13.508Z,1022.23
2023-02-04T02:57:13.513Z,1022.22
2023-02-04T02:58:13.484Z,1022.26
2023-02-04T02:59:13.491Z,1022.26
2023-02-04T03:00:13.465Z,1022.25
2023-02-04T03:01:13.500Z,1022.26
2023-02-04T03:02:13.510Z,1022.26
2023-02-04T03:03:13.429Z,1022.28
2023-02-04T03:04:13.447Z,1022.31
2023-02-04T03:05:13.408Z,1022.35
2023-02-04T03:06:13.410Z,1022.36
2023-02-04T03:07:13.384Z,1022.37
2023-02-04T03:08:13.419Z,1022.43
2023-02-04T03:09:13.368Z,1022.42
2023-02-04T03:10:13.354Z,1022.44
2023-02-04T03:11:13.341Z,1022.45
2023-02-04T03:12:13.328Z,1022.47
2023-02-04T03:13:13.343Z,1022.56
2023-02-04T03:14:13.325Z,1022.59
2023-02-04T03:15:13.299Z,1022.56
2023-02-04T03:16:13.377Z,1022.59
2023-02-04T03:17:13.285Z,1022.53
2023-02-04T03:18:13.266Z,1022.52
2023-02-04T03:19:13.282Z,1022.55
2023-02-04T03:20:13.252Z,1022.58
2023-02-04T03:21:13.236Z,1022.64
2023-02-04T03:22:13.225Z,1022.69
2023-02-04T03:23:13.209Z,1022.73
2023-02-04T03:24:13.231Z,1022.75
2023-02-04T03:25:13.188Z,1022.76
2023-02-04T03:26:13.184Z,1022.83
2023-02-04T03:27:13.167Z,1022.89
2023-02-04T03:28:13.265Z,1022.95
2023-02-04T03:29:13.167Z,1022.96
2023-02-04T03:30:13.164Z,1023.01
2023-02-04T03:31:13.254Z,1023.01
2023-02-04T03:32:13.122Z,1023.09
2023-02-04T03:33:13.104Z,1023.13
2023-02-04T03:34:13.105Z,1023.16
2023-02-04T03:35:13.112Z,1023.15
2023-02-04T03:36:13.076Z,1023.18
2023-02-04T03:37:13.060Z,1023.23
2023-02-04T03:38:13.052Z,1023.24
2023-02-04T03:39:13.046Z,1023.26
2023-02-04T03:40:13.028Z,1023.31
2023-02-04T03:41:13.062Z,1023.34
2023-02-04T03:42:13.006Z,1023.31
2023-02-04T03:43:13.004Z,1023.38
2023-02-04T03:44:12.987Z,1023.41
2023-02-04T03:45:13.020Z,1023.48
2023-02-04T03:46:13.063Z,1023.61
2023-02-04T03:47:12.953Z,1023.60
2023-02-04T03:48:12.948Z,1023.64
2023-02-04T03:49:12.944Z,1023.62
2023-02-04T03:50:12.928Z,1023.71
2023-02-04T03:51:12.940Z,1023.68
2023-02-04T03:52:12.931Z,1023.75
2023-02-04T03:53:12.895Z,1023.76
2023-02-04T03:54:12.876Z,1023.79
2023-02-04T03:55:12.894Z,1023.80
2023-02-04T03:56:12.863Z,1023.84
2023-02-04T03:57:12.873Z,1023.91
2023-02-04T03:58:12.867Z,1023.94
2023-02-04T03:59:12.831Z,1023.97
2023-02-04T04:00:12.824Z,1023.98
2023-02-04T04:01:12.944Z,1023.99
2023-02-04T04:02:12.804Z,1024.01
2023-02-04T04:03:12.782Z,1024.04
2023-02-04T04:04:12.802Z,1024.04
2023-02-04T04:05:12.765Z,1024.11
2023-02-04T04:06:12.750Z,1024.10
2023-02-04T04:07:12.755Z,1024.14
2023-02-04T04:08:12.753Z,1024.20
2023-02-04T04:09:12.747Z,1024.21
2023-02-04T04:10:12.711Z,1024.24
2023-02-04T04:11:12.696Z,1024.27
2023-02-04T04:12:12.687Z,1024.24
2023-02-04T04:13:12.699Z,1024.25
2023-02-04T04:14:12.674Z,1024.22
2023-02-04T04:15:12.660Z,1024.28
2023-02-04T04:16:12.653Z,1024.28
2023-02-04T04:17:12.657Z,1024.34
2023-02-04T04:18:12.654Z,1024.36
2023-02-04T04:19:12.625Z,1024.48
2023-02-04T04:20:12.612Z,1024.43
2023-02-04T04:21:12.591Z,1024.50
2023-02-04T04:22:12.588Z,1024.55
2023-02-04T04:23:12.627Z,1024.49
2023-02-04T04:24:12.569Z,1024.57
2023-02-04T04:25:12.556Z,1024.64
2023-02-04T04:26:12.568Z,1024.59
2023-02-04T04:27:12.542Z,1024.63
2023-02-04T04:28:12.592Z,1024.71
2023-02-04T04:29:12.532Z,1024.67
2023-02-04T04:30:12.484Z,1024.73
2023-02-04T04:31:12.560Z,1024.79
2023-02-04T04:32:12.479Z,1024.77
2023-02-04T04:33:12.471Z,1024.77
2023-02-04T04:34:12.472Z,1024.78
2023-02-04T04:35:12.431Z,1024.82
2023-02-04T04:36:12.447Z,1024.83
2023-02-04T04:37:12.418Z,1024.91
2023-02-04T04:38:12.402Z,1024.92
2023-02-04T04:39:12.412Z,1024.94
2023-02-04T04:40:12.386Z,1024.96
2023-02-04T04:41:12.371Z,1025.01
2023-02-04T04:42:12.374Z,1025.00
2023-02-04T04:43:12.352Z,1025.03
2023-02-04T04:44:12.357Z,1025.02
2023-02-04T04:45:12.351Z,1025.05
2023-02-04T04:46:12.337Z,1025.10
2023-02-04T04:47:12.313Z,1025.12
2023-02-04T04:48:12.292Z,1025.11
2023-02-04T04:49:12.322Z,1025.16
2023-02-04T04:50:12.267Z,1025.21
2023-02-04T04:51:12.284Z,1025.26
2023-02-04T04:52:12.251Z,1025.28
2023-02-04T04:53:12.270Z,1025.34
2023-02-04T04:54:12.223Z,1025.34
2023-02-04T04:55:12.268Z,1025.40
2023-02-04T04:56:12.211Z,1025.43
2023-02-04T04:57:12.197Z,1025.45
2023-02-04T04:58:12.174Z,1025.46
2023-02-04T04:59:12.176Z,1025.48
2023-02-04T05:00:12.182Z,1025.48
2023-02-04T05:01:12.237Z,1025.50
2023-02-04T05:02:12.143Z,1025.53
2023-02-04T05:03:12.148Z,1025.56
2023-02-04T05:04:12.137Z,1025.73
2023-02-04T05:05:12.141Z,1025.73
2023-02-04T05:06:12.101Z,1025.74
2023-02-04T05:07:12.128Z,1025.76
2023-02-04T05:08:12.076Z,1025.75
2023-02-04T05:09:12.070Z,1025.74
2023-02-04T05:10:12.080Z,1025.75
2023-02-04T05:11:12.047Z,1025.76
2023-02-04T05:12:12.034Z,1025.76
2023-02-04T05:13:12.030Z,1025.80
2023-02-04T05:14:12.009Z,1025.79
2023-02-04T05:15:12.038Z,1025.78
2023-02-04T05:16:12.100Z,1025.79
2023-02-04T05:17:11.998Z,1025.82
2023-02-04T05:18:11.966Z,1025.82
2023-02-04T05:19:12.014Z,1025.87
2023-02-04T05:20:11.970Z,1025.90
2023-02-04T05:21:11.996Z,1025.91
2023-02-04T05:22:11.926Z,1025.96
2023-02-04T05:23:11.931Z,1026.00
2023-02-04T05:24:11.907Z,1025.97
2023-02-04T05:25:11.907Z,1025.98
2023-02-04T05:26:17.129Z,1026.02
2023-02-04T05:27:12.872Z,1026.07
2023-02-04T05:28:11.990Z,1026.09
2023-02-04T05:29:11.869Z,1026.08
2023-02-04T05:30:11.851Z,1026.11
2023-02-04T05:31:12.053Z,1026.12
2023-02-04T05:32:11.992Z,1026.10
2023-02-04T05:33:11.814Z,1026.17
2023-02-04T05:34:11.814Z,1026.23
2023-02-04T05:35:11.790Z,1026.27
2023-02-04T05:36:12.033Z,1026.30
2023-02-04T05:37:11.783Z,1026.33
2023-02-04T05:38:11.800Z,1026.35
2023-02-04T05:39:11.753Z,1026.33
2023-02-04T05:40:11.742Z,1026.34
2023-02-04T05:41:11.721Z,1026.38
2023-02-04T05:42:11.710Z,1026.40
2023-02-04T05:43:11.727Z,1026.44
2023-02-04T05:44:11.990Z,1026.46
2023-02-04T05:45:11.688Z,1026.48
2023-02-04T05:46:11.766Z,1026.53
2023-02-04T05:47:11.662Z,1026.57
2023-02-04T05:48:11.657Z,1026.58
2023-02-04T05:49:11.694Z,1026.58
2023-02-04T05:50:11.623Z,1026.58
2023-02-04T05:51:11.620Z,1026.62
2023-02-04T05:52:11.601Z,1026.64
2023-02-04T05:53:11.610Z,1026.67
2023-02-04T05:54:11.613Z,1026.67
2023-02-04T05:55:11.573Z,1026.68
2023-02-04T05:56:11.592Z,1026.77
2023-02-04T05:57:11.579Z,1026.76
2023-02-04T05:58:11.555Z,1026.82
2023-02-04T05:59:11.568Z,1026.76
2023-02-04T06:00:11.522Z,1026.81
2023-02-04T06:01:11.513Z,1026.77
2023-02-04T06:02:11.502Z,1026.87
2023-02-04T06:03:11.562Z,1026.81
2023-02-04T06:04:11.548Z,1026.91
2023-02-04T06:05:11.470Z,1026.94
2023-02-04T06:06:11.457Z,1026.99
2023-02-04T06:07:11.446Z,1027.00
2023-02-04T06:08:11.442Z,1027.04
2023-02-04T06:09:11.438Z,1027.12
2023-02-04T06:10:11.440Z,1027.14
2023-02-04T06:11:11.400Z,1027.13
2023-02-04T06:12:11.386Z,1027.16
2023-02-04T06:13:11.380Z,1027.20
2023-02-04T06:14:11.378Z,1027.23
2023-02-04T06:15:11.460Z,1027.23
2023-02-04T06:16:11.376Z,1027.27
2023-02-04T06:17:11.369Z,1027.28
2023-02-04T06:18:11.331Z,1027.34
2023-02-04T06:19:11.311Z,1027.33
2023-02-04T06:20:11.302Z,1027.33
2023-02-04T06:21:11.323Z,1027.34
2023-02-04T06:22:11.292Z,1027.37
2023-02-04T06:23:11.275Z,1027.37
2023-02-04T06:24:11.261Z,1027.37
2023-02-04T06:25:11.270Z,1027.37
2023-02-04T06:26:11.270Z,1027.39
2023-02-04T06:27:11.248Z,1027.42
2023-02-04T06:28:11.329Z,1027.47
2023-02-04T06:29:11.223Z,1027.46
2023-02-04T06:30:11.285Z,1027.49
2023-02-04T06:31:11.319Z,1027.51
2023-02-04T06:32:11.217Z,1027.50
2023-02-04T06:33:11.161Z,1027.51
2023-02-04T06:34:11.145Z,1027.52
2023-02-04T06:35:11.143Z,1027.53
2023-02-04T06:36:11.159Z,1027.52
2023-02-04T06:37:11.136Z,1027.55
2023-02-04T06:38:11.114Z,1027.54
2023-02-04T06:39:11.104Z,1027.60
2023-02-04T06:40:11.105Z,1027.60
2023-02-04T06:41:11.123Z,1027.60
2023-02-04T06:42:11.073Z,1027.62
2023-02-04T06:43:11.055Z,1027.57
2023-02-04T06:44:11.046Z,1027.59
2023-02-04T06:45:11.038Z,1027.60
2023-02-04T06:46:11.141Z,1027.59
2023-02-04T06:47:11.025Z,1027.61
2023-02-04T06:48:10.994Z,1027.67
2023-02-04T06:49:11.029Z,1027.63
2023-02-04T06:50:10.975Z,1027.68
2023-02-04T06:51:10.962Z,1027.68
2023-02-04T06:52:10.971Z,1027.64
2023-02-04T06:53:10.948Z,1027.66
2023-02-04T06:54:10.933Z,1027.65
2023-02-04T06:55:10.957Z,1027.63
2023-02-04T06:56:10.907Z,1027.66
2023-02-04T06:57:10.947Z,1027.62
2023-02-04T06:58:10.886Z,1027.65
2023-02-04T06:59:10.884Z,1027.61
2023-02-04T07:00:10.869Z,1027.65
2023-02-04T07:01:10.905Z,1027.65
2023-02-04T07:02:10.876Z,1027.65
2023-02-04T07:03:10.873Z,1027.65
2023-02-04T07:04:10.834Z,1027.66
2023-02-04T07:05:10.813Z,1027.67
2023-02-04T07:06:10.821Z,1027.68
2023-02-04T07:07:10.790Z,1027.70
2023-02-04T07:08:10.824Z,1027.72
2023-02-04T07:09:10.773Z,1027.71
2023-02-04T07:10:10.758Z,1027.74
2023-02-04T07:11:10.760Z,1027.70
2023-02-04T07:12:10.735Z,1027.72
2023-02-04T07:13:10.753Z,1027.76
2023-02-04T07:14:10.733Z,1027.73
2023-02-04T07:15:10.706Z,1027.76
2023-02-04T07:16:10.802Z,1027.75
2023-02-04T07:17:10.688Z,1027.78
2023-02-04T07:18:10.673Z,1027.78
2023-02-04T07:19:10.702Z,1027.77
2023-02-04T07:20:10.659Z,1027.83
2023-02-04T07:21:10.643Z,1027.86
2023-02-04T07:22:10.645Z,1027.88
2023-02-04T07:23:10.621Z,1027.88
2023-02-04T07:24:10.619Z,1027.93
2023-02-04T07:25:10.624Z,1027.96
2023-02-04T07:26:10.602Z,1028.00
2023-02-04T07:27:10.579Z,1028.03
2023-02-04T07:28:10.592Z,1028.03
2023-02-04T07:29:17.494Z,1028.06
2023-02-04T07:30:11.578Z,1028.07
2023-02-04T07:31:10.631Z,1028.15
2023-02-04T07:32:10.531Z,1028.17
2023-02-04T07:33:10.532Z,1028.18
2023-02-04T07:34:10.516Z,1028.20
2023-02-04T07:35:10.501Z,1028.22
2023-02-04T07:36:10.524Z,1028.24
2023-02-04T07:37:10.474Z,1028.24
2023-02-04T07:38:10.456Z,1028.30
2023-02-04T07:39:10.450Z,1028.32
2023-02-04T07:40:10.543Z,1028.31
2023-02-04T07:41:10.425Z,1028.38
2023-02-04T07:42:10.415Z,1028.37
2023-02-04T07:43:10.398Z,1028.36
2023-02-04T07:44:10.425Z,1028.39
2023-02-04T07:45:10.530Z,1028.40
2023-02-04T07:46:10.438Z,1028.42
2023-02-04T07:47:10.372Z,1028.43
2023-02-04T07:48:10.346Z,1028.47
2023-02-04T07:49:10.337Z,1028.51
2023-02-04T07:50:10.345Z,1028.46
2023-02-04T07:51:10.317Z,1028.45
2023-02-04T07:52:10.316Z,1028.50
2023-02-04T07:53:10.285Z,1028.50
2023-02-04T07:54:10.279Z,1028.52
2023-02-04T07:55:10.300Z,1028.55
2023-02-04T07:56:10.271Z,1028.57
2023-02-04T07:57:10.257Z,1028.57
2023-02-04T07:58:10.235Z,1028.61
2023-02-04T07:59:10.221Z,1028.64
2023-02-04T08:00:10.210Z,1028.66
2023-02-04T08:01:10.251Z,1028.69
2023-02-04T08:02:10.192Z,1028.68
2023-02-04T08:03:10.230Z,1028.71
2023-02-04T08:04:10.174Z,1028.75
2023-02-04T08:05:10.163Z,1028.81
2023-02-04T08:06:10.155Z,1028.75
2023-02-04T08:07:10.160Z,1028.81
2023-02-04T08:08:10.134Z,1028.82
2023-02-04T08:09:10.120Z,1028.83
2023-02-04T08:10:10.130Z,1028.85
2023-02-04T08:11:10.106Z,1028.87
2023-02-04T08:12:10.098Z,1028.87
2023-02-04T08:13:10.079Z,1028.88
2023-02-04T08:14:10.090Z,1028.93
2023-02-04T08:15:10.049Z,1028.89
2023-02-04T08:16:11.819Z,1028.97
2023-02-04T08:17:10.090Z,1028.96
2023-02-04T08:18:10.019Z,1028.98
2023-02-04T08:19:10.012Z,1028.95
2023-02-04T08:20:09.992Z,1029.00
2023-02-04T08:21:09.988Z,1028.99
2023-02-04T08:22:10.000Z,1029.03
2023-02-04T08:23:09.958Z,1029.07
2023-02-04T08:24:09.940Z,1029.07
2023-02-04T08:25:09.954Z,1029.08
2023-02-04T08:26:09.957Z,1029.08
2023-02-04T08:27:09.917Z,1029.14
2023-02-04T08:28:10.012Z,1029.14
2023-02-04T08:29:09.915Z,1029.17
2023-02-04T08:30:09.929Z,1029.21
2023-02-04T08:31:09.982Z,1029.20
2023-02-04T08:32:09.852Z,1029.29
2023-02-04T08:33:09.859Z,1029.17
2023-02-04T08:34:09.861Z,1029.23
2023-02-04T08:35:09.838Z,1029.20
2023-02-04T08:36:09.849Z,1029.23
2023-02-04T08:37:09.805Z,1029.20
2023-02-04T08:38:09.801Z,1029.25
2023-02-04T08:39:09.839Z,1029.24
2023-02-04T08:40:09.789Z,1029.23
2023-02-04T08:41:09.787Z,1029.23
2023-02-04T08:42:09.754Z,1029.28
2023-02-04T08:43:09.731Z,1029.34
2023-02-04T08:44:09.730Z,1029.37
2023-02-04T08:45:09.766Z,1029.37
2023-02-04T08:46:18.890Z,1029.34
2023-02-04T08:47:09.732Z,1029.38
2023-02-04T08:48:09.693Z,1029.32
2023-02-04T08:49:09.709Z,1029.37
2023-02-04T08:50:09.713Z,1029.38
2023-02-04T08:51:09.660Z,1029.32
2023-02-04T08:52:09.675Z,1029.35
2023-02-04T08:53:09.645Z,1029.35
2023-02-04T08:54:09.656Z,1029.39
2023-02-04T08:55:09.669Z,1029.40
2023-02-04T08:56:09.640Z,1029.37
2023-02-04T08:57:09.641Z,1029.33
2023-02-04T08:58:09.621Z,1029.38
2023-02-04T08:59:09.584Z,1029.36
2023-02-04T09:00:09.601Z,1029.47
2023-02-04T09:01:09.609Z,1029.49
2023-02-04T09:02:09.685Z,1029.52
2023-02-04T09:03:09.578Z,1029.51
2023-02-04T09:04:09.544Z,1029.49
2023-02-04T09:05:09.580Z,1029.50
2023-02-04T09:06:09.534Z,1029.51
2023-02-04T09:07:09.528Z,1029.49
2023-02-04T09:08:09.525Z,1029.46
2023-02-04T09:09:09.483Z,1029.60
2023-02-04T09:10:09.514Z,1029.60
2023-02-04T09:11:09.463Z,1029.56
2023-02-04T09:12:09.484Z,1029.54
2023-02-04T09:13:09.454Z,1029.60
2023-02-04T09:14:09.433Z,1029.54
2023-02-04T09:15:09.431Z,1029.63
2023-02-04T09:16:09.543Z,1029.64
2023-02-04T09:17:09.408Z,1029.62
2023-02-04T09:18:09.908Z,1029.64
2023-02-04T09:19:09.382Z,1029.64
2023-02-04T09:20:09.378Z,1029.60
2023-02-04T09:21:09.375Z,1029.68
2023-02-04T09:22:09.381Z,1029.65
2023-02-04T09:23:09.366Z,1029.60
2023-02-04T09:24:09.349Z,1029.80
2023-02-04T09:25:09.328Z,1029.76
2023-02-04T09:26:09.335Z,1029.81
2023-02-04T09:27:09.298Z,1029.80
2023-02-04T09:28:09.346Z,1029.83
2023-02-04T09:29:09.273Z,1029.78
2023-02-04T09:30:09.259Z,1029.81
2023-02-04T09:31:09.322Z,1029.88
2023-02-04T09:32:09.309Z,1029.82
2023-02-04T09:33:09.263Z,1029.94
2023-02-04T09:34:09.235Z,1029.89
2023-02-04T09:35:09.218Z,1029.93
2023-02-04T09:36:10.043Z,1029.90
2023-02-04T09:37:09.217Z,1029.93
2023-02-04T09:38:09.179Z,1029.93
2023-02-04T09:39:09.159Z,1029.91
2023-02-04T09:40:09.164Z,1029.94
2023-02-04T09:41:09.181Z,1029.97
2023-02-04T09:42:09.136Z,1029.96
2023-02-04T09:43:09.130Z,1030.02
2023-02-04T09:44:09.130Z,1030.01
2023-02-04T09:45:09.095Z,1030.03
2023-02-04T09:46:09.142Z,1030.03
2023-02-04T09:47:09.107Z,1030.01
2023-02-04T09:48:10.319Z,1030.04
2023-02-04T09:49:09.069Z,1030.10
2023-02-04T09:50:09.080Z,1030.17
2023-02-04T09:51:09.079Z,1030.20
2023-02-04T09:52:09.051Z,1030.21
2023-02-04T09:53:09.097Z,1030.19
2023-02-04T09:54:09.868Z,1030.21
2023-02-04T09:55:08.995Z,1030.24
2023-02-04T09:56:08.988Z,1030.20
2023-02-04T09:57:08.991Z,1030.27
2023-02-04T09:58:08.948Z,1030.24
2023-02-04T09:59:08.931Z,1030.28
2023-02-04T10:00:09.916Z,1030.28
2023-02-04T10:01:09.036Z,1030.32
2023-02-04T10:02:08.917Z,1030.27
2023-02-04T10:03:08.880Z,1030.09
2023-02-04T10:04:08.900Z,1030.37
2023-02-04T10:05:08.859Z,1030.28
2023-02-04T10:06:08.906Z,1030.12
2023-02-04T10:07:08.912Z,1030.30
2023-02-04T10:08:10.512Z,1030.33
2023-02-04T10:09:09.854Z,1030.29
2023-02-04T10:10:08.809Z,1030.28
2023-02-04T10:11:08.800Z,1030.26
2023-02-04T10:12:08.775Z,1030.29
2023-02-04T10:13:08.776Z,1030.21
2023-02-04T10:14:08.764Z,1030.27
2023-02-04T10:15:08.759Z,1030.21
2023-02-04T10:16:08.878Z,1030.26
2023-02-04T10:17:08.754Z,1030.32
2023-02-04T10:18:08.708Z,1030.21
2023-02-04T10:19:08.700Z,1030.19
2023-02-04T10:20:08.688Z,1030.26
2023-02-04T10:21:08.675Z,1030.30
2023-02-04T10:22:08.672Z,1030.24
2023-02-04T10:23:08.676Z,1030.29
2023-02-04T10:24:08.709Z,1030.23
2023-02-04T10:25:08.657Z,1030.22
2023-02-04T10:26:08.620Z,1030.23
2023-02-04T10:27:08.634Z,1030.17
2023-02-04T10:28:08.682Z,1030.22
2023-02-04T10:29:09.858Z,1030.31
2023-02-04T10:30:08.592Z,1030.29
2023-02-04T10:31:08.712Z,1030.32
2023-02-04T10:32:08.561Z,1030.28
2023-02-04T10:33:08.557Z,1030.32
2023-02-04T10:34:08.552Z,1030.32
2023-02-04T10:35:08.547Z,1030.29
2023-02-04T10:36:08.542Z,1030.31
2023-02-04T10:37:08.512Z,1030.31
2023-02-04T10:38:08.515Z,1030.39
2023-02-04T10:39:08.497Z,1030.43
2023-02-04T10:40:08.493Z,1030.40
2023-02-04T10:41:08.492Z,1030.43
2023-02-04T10:42:08.463Z,1030.43
2023-02-04T10:43:08.437Z,1030.44
2023-02-04T10:44:08.445Z,1030.41
2023-02-04T10:45:08.438Z,1030.39
2023-02-04T10:46:08.493Z,1030.43
2023-02-04T10:47:08.508Z,1030.43
2023-02-04T10:48:08.396Z,1030.39
2023-02-04T10:49:08.381Z,1030.41
2023-02-04T10:50:08.382Z,1030.41
2023-02-04T10:51:08.366Z,1030.43
2023-02-04T10:52:08.362Z,1030.41
2023-02-04T10:53:08.338Z,1030.41
2023-02-04T10:54:08.320Z,1030.41
2023-02-04T10:55:08.336Z,1030.40
2023-02-04T10:56:08.326Z,1030.41
2023-02-04T10:57:08.314Z,1030.45
2023-02-04T10:58:08.300Z,1030.43
2023-02-04T10:59:08.270Z,1030.40
2023-02-04T11:00:08.266Z,1030.44
2023-02-04T11:01:08.299Z,1030.46
2023-02-04T11:02:08.237Z,1030.49
2023-02-04T11:03:08.316Z,1030.46
2023-02-04T11:04:08.217Z,1030.49
2023-02-04T11:05:08.212Z,1030.47
2023-02-04T11:06:08.211Z,1030.46
2023-02-04T11:07:08.186Z,1030.43
2023-02-04T11:08:08.168Z,1030.46
2023-02-04T11:09:08.157Z,1030.51
2023-02-04T11:10:08.157Z,1030.45
2023-02-04T11:11:08.155Z,1030.48
2023-02-04T11:12:08.141Z,1030.50
2023-02-04T11:13:08.163Z,1030.46
2023-02-04T11:14:08.108Z,1030.48
2023-02-04T11:15:08.099Z,1030.45
2023-02-04T11:16:08.195Z,1030.46
2023-02-04T11:17:08.092Z,1030.49
2023-02-04T11:18:08.067Z,1030.51
2023-02-04T11:19:08.069Z,1030.48
2023-02-04T11:20:08.035Z,1030.50
2023-02-04T11:21:08.059Z,1030.48
2023-02-04T11:22:08.026Z,1030.52
2023-02-04T11:23:08.014Z,1030.52
2023-02-04T11:24:08.002Z,1030.55
2023-02-04T11:25:07.988Z,1030.57
2023-02-04T11:26:07.974Z,1030.57
2023-02-04T11:27:07.991Z,1030.63
2023-02-04T11:28:08.096Z,1030.59
2023-02-04T11:29:07.999Z,1030.62
2023-02-04T11:30:07.935Z,1030.61
2023-02-04T11:31:08.035Z,1030.63
2023-02-04T11:32:07.915Z,1030.61
2023-02-04T11:33:07.907Z,1030.65
2023-02-04T11:34:07.892Z,1030.68
2023-02-04T11:35:07.914Z,1030.71
2023-02-04T11:36:07.859Z,1030.74
2023-02-04T11:37:07.888Z,1030.73
2023-02-04T11:38:07.837Z,1030.71
2023-02-04T11:39:07.841Z,1030.76
2023-02-04T11:40:07.819Z,1030.80
2023-02-04T11:41:08.408Z,1030.80
2023-02-04T11:42:07.817Z,1030.79
2023-02-04T11:43:07.788Z,1030.79
2023-02-04T11:44:07.772Z,1030.81
2023-02-04T11:45:07.820Z,1030.84
2023-02-04T11:46:07.832Z,1030.82
2023-02-04T11:47:07.767Z,1030.84
2023-02-04T11:48:07.730Z,1030.81
2023-02-04T11:49:07.739Z,1030.85
2023-02-04T11:50:07.711Z,1030.79
2023-02-04T11:51:07.716Z,1030.91
2023-02-04T11:52:07.689Z,1030.89
2023-02-04T11:53:07.677Z,1030.94
2023-02-04T11:54:07.684Z,1030.97
2023-02-04T11:55:07.705Z,1030.97
2023-02-04T11:56:07.646Z,1030.95
2023-02-04T11:57:07.658Z,1030.98
2023-02-04T11:58:07.622Z,1031.00
2023-02-04T11:59:07.605Z,1030.92
2023-02-04T12:00:07.597Z,1030.93
2023-02-04T12:01:07.633Z,1030.99
2023-02-04T12:02:07.580Z,1031.02
2023-02-04T12:03:07.568Z,1030.96
2023-02-04T12:04:07.620Z,1030.93
2023-02-04T12:05:07.634Z,1030.95